Time;durP1;ratioP1;P1;durP2;ratioP2;P2;SDS_P1;SDS_P2;PMS_P1;PMS_P2;Temp;Humidity;BMP_temperature;BMP_pressure;BME280_temperature;BME280_humidity;BME280_pressure;Samples;Min_cycle;Max_cycle;Signal;HPM_P1;HPM_P2
2023/04/13 00:00:11;;;;;;;;;;;;;;;-142.25;100.00;58004.16;4912022;29;19926;-67
2023/04/13 00:02:38;;;;;;;;;;;;;;;-142.25;100.00;58004.16;4911283;29;19937;-67
2023/04/13 00:05:08;;;;;;;;;;;;;;;-142.25;100.00;58004.16;4911724;29;19927;-67
2023/04/13 00:07:37;;;;;;;;;;;;;;;-142.25;100.00;58004.16;4926647;29;20287;-67
2023/04/13 00:10:05;;;;;;;;;;;;;;;-142.25;100.00;58004.16;4911903;29;19929;-67
2023/04/13 00:12:32;;;;;;;;;;;;;;;-142.25;100.00;58004.16;4912166;29;19959;-67
2023/04/13 00:14:57;;;;;;;;;;;;;;;-142.25;100.00;58004.16;4913484;29;19926;-67
2023/04/13 00:17:25;;;;;;;;;;;;;;;-142.25;100.00;58004.16;4912729;29;19927;-68
2023/04/13 00:19:52;;;;;;;;;;;;;;;-142.25;100.00;58004.16;4911637;29;20434;-67
2023/04/13 00:22:18;;;;;;;;;;;;;;;-142.25;100.00;58004.16;4912803;29;19926;-68
2023/04/13 00:24:44;;;;;;;;;;;;;;;-142.25;100.00;58004.16;4911261;29;20438;-68
2023/04/13 00:27:10;;;;;;;;;;;;;;;-142.25;100.00;58004.16;4912001;29;19926;-68
2023/04/13 00:29:36;;;;;;;;;;;;;;;-142.25;100.00;58004.16;4909912;29;19926;-67
2023/04/13 00:32:01;;;;;;;;;;;;;;;-142.25;100.00;58004.16;4911283;29;19934;-67
2023/04/13 00:34:29;;;;;;;;;;;;;;;-142.25;100.00;58004.16;4914730;29;20044;-68
2023/04/13 00:36:57;;;;;;;;;;;;;;;-142.25;100.00;58004.16;4926829;29;19945;-67
2023/04/13 00:39:23;;;;;;;;;;;;;;;-142.25;100.00;58004.16;4925219;29;20576;-67
2023/04/13 00:41:52;;;;;;;;;;;;;;;-142.25;100.00;58004.16;4912040;29;19982;-68
2023/04/13 00:44:20;;;;;;;;;;;;;;;-142.25;100.00;58004.16;4912908;29;19966;-68
2023/04/13 00:46:49;;;;;;;;;;;;;;;-142.25;100.00;58004.16;4911298;29;19923;-67
2023/04/13 00:49:16;;;;;;;;;;;;;;;-142.25;100.00;58004.16;4911603;29;20408;-67
2023/04/13 00:51:46;;;;;;;;;;;;;;;-142.25;100.00;58004.16;4909145;29;20255;-68
2023/04/13 00:54:18;;;;;;;;;;;;;;;-142.25;100.00;58004.16;4908105;29;19961;-67
2023/04/13 00:56:44;;;;;;;;;;;;;;;-142.25;100.00;58004.16;4909343;29;19934;-68
2023/04/13 00:59:11;;;;;;;;;;;;;;;-142.25;100.00;58004.16;4909733;29;20112;-68
2023/04/13 01:01:45;;;;;;;;;;;;;;;-142.25;100.00;58004.16;4911350;29;19930;-67
2023/04/13 01:04:13;;;;;;;;;;;;;;;-142.25;100.00;58004.16;4910271;29;19927;-67
2023/04/13 01:06:52;;;;;;;;;;;;;;;-142.25;100.00;58004.16;4914492;29;19927;-68
2023/04/13 01:09:24;;;;;;;;;;;;;;;-142.25;100.00;58004.16;4916339;29;20501;-67
2023/04/13 01:12:01;;;;;;;;;;;;;;;-142.25;100.00;58004.16;4929300;29;19962;-68
2023/04/13 01:14:36;;;;;;;;;;;;;;;-142.25;100.00;58004.16;4920944;29;19922;-67
2023/04/13 01:17:07;;;;;;;;;;;;;;;-142.25;100.00;58004.16;4929429;29;19982;-67
2023/04/13 01:19:33;;;;;;;;;;;;;;;-142.25;100.00;58004.16;4919855;29;19922;-67
2023/04/13 01:21:59;;;;;;;;;;;;;;;-142.25;100.00;58004.16;4915882;29;19931;-67
2023/04/13 01:24:39;;;;;;;;;;;;;;;-142.25;100.00;58004.16;4917482;29;19923;-69
2023/04/13 01:27:19;;;;;;;;;;;;;;;-142.25;100.00;58004.16;4899540;29;19922;-65
2023/04/13 01:29:45;;;;;;;;;;;;;;;-142.25;100.00;58004.16;4918154;29;19974;-67
2023/04/13 01:32:13;;;;;;;;;;;;;;;-142.25;100.00;58004.16;4914322;29;20142;-67
2023/04/13 01:34:39;;;;;;;;;;;;;;;-142.25;100.00;58004.16;4928828;29;20013;-67
2023/04/13 01:37:07;;;;;;;;;;;;;;;-142.25;100.00;58004.16;4914679;29;20359;-67
2023/04/13 01:39:35;;;;;;;;;;;;;;;-142.25;100.00;58004.16;4912148;29;20010;-66
2023/04/13 01:42:08;;;;;;;;;;;;;;;-142.25;100.00;58004.16;4922956;29;19938;-68
2023/04/13 01:44:35;;;;;;;;;;;;;;;-142.25;100.00;58004.16;4916575;29;19948;-67
2023/04/13 01:47:14;;;;;;;;;;;;;;;-142.25;100.00;58004.16;4913981;29;19934;-66
2023/04/13 01:50:02;;;;;;;;;;;;;;;-142.25;100.00;58004.16;4913024;29;19923;-67
2023/04/13 01:52:39;;;;;;;;;;;;;;;-142.25;100.00;58004.16;4911931;29;19949;-66
2023/04/13 01:55:07;;;;;;;;;;;;;;;-142.25;100.00;58004.16;4919914;29;20350;-64
2023/04/13 01:57:35;;;;;;;;;;;;;;;-142.25;100.00;58004.16;4929633;29;20018;-68
2023/04/13 02:00:09;;;;;;;;;;;;;;;-142.25;100.00;58004.16;4913900;29;19983;-66
2023/04/13 02:02:38;;;;;;;;;;;;;;;-142.25;100.00;58004.16;4912952;29;20302;-66
2023/04/13 02:05:04;;;;;;;;;;;;;;;-142.25;100.00;58004.16;4911805;29;19923;-67
2023/04/13 02:07:33;;;;;;;;;;;;;;;-142.25;100.00;58004.16;4922523;29;20409;-67
2023/04/13 02:09:59;;;;;;;;;;;;;;;-142.25;100.00;58004.16;4912896;29;20164;-66
2023/04/13 02:12:24;;;;;;;;;;;;;;;-142.25;100.00;58004.16;4928363;29;19933;-65
2023/04/13 02:14:50;;;;;;;;;;;;;;;-142.25;100.00;58004.16;4913281;29;20009;-66
2023/04/13 02:17:16;;;;;;;;;;;;;;;-142.25;100.00;58004.16;4920026;29;20047;-66
2023/04/13 02:19:44;;;;;;;;;;;;;;;-142.25;100.00;58004.16;4925364;29;19934;-66
2023/04/13 02:22:13;;;;;;;;;;;;;;;-142.25;100.00;58004.16;4911513;29;20503;-67
2023/04/13 02:24:39;;;;;;;;;;;;;;;-142.25;100.00;58004.16;4913970;29;20040;-66
2023/04/13 02:27:04;;;;;;;;;;;;;;;-142.25;100.00;58004.16;4914124;29;19923;-66
2023/04/13 02:29:30;;;;;;;;;;;;;;;-142.25;100.00;58004.16;4913316;29;19927;-66
2023/04/13 02:31:56;;;;;;;;;;;;;;;-142.25;100.00;58004.16;4914074;29;20437;-65
2023/04/13 02:34:22;;;;;;;;;;;;;;;-142.25;100.00;58004.16;4912513;29;20425;-65
2023/04/13 02:36:47;;;;;;;;;;;;;;;-142.25;100.00;58004.16;4912614;29;20081;-65
2023/04/13 02:39:13;;;;;;;;;;;;;;;-142.25;100.00;58004.16;4912932;29;19963;-65
2023/04/13 02:41:41;;;;;;;;;;;;;;;-142.25;100.00;58004.16;4911470;29;19938;-65
2023/04/13 02:44:07;;;;;;;;;;;;;;;-142.25;100.00;58004.16;4912820;29;19926;-65
2023/04/13 02:46:42;;;;;;;;;;;;;;;-142.25;100.00;58004.16;4911424;29;20009;-65
2023/04/13 02:49:13;;;;;;;;;;;;;;;-142.25;100.00;58004.16;4928434;29;19922;-65
2023/04/13 02:51:51;;;;;;;;;;;;;;;-142.25;100.00;58004.16;4920560;29;19983;-65
2023/04/13 02:54:23;;;;;;;;;;;;;;;-142.25;100.00;58004.16;4910891;29;20362;-65
2023/04/13 02:56:50;;;;;;;;;;;;;;;-142.25;100.00;58004.16;4912393;29;19979;-65
2023/04/13 02:59:15;;;;;;;;;;;;;;;-142.25;100.00;58004.16;4914119;29;19927;-65
2023/04/13 03:01:41;;;;;;;;;;;;;;;-142.25;100.00;58004.16;4911011;29;20398;-66
2023/04/13 03:04:08;;;;;;;;;;;;;;;-142.25;100.00;58004.16;4927851;29;19930;-65
2023/04/13 03:06:33;;;;;;;;;;;;;;;-142.25;100.00;58004.16;4912754;29;19933;-65
2023/04/13 03:09:00;;;;;;;;;;;;;;;-142.25;100.00;58004.16;4909052;29;19958;-66
2023/04/13 03:11:32;;;;;;;;;;;;;;;-142.25;100.00;58004.16;4914076;29;20002;-65
2023/04/13 03:14:19;;;;;;;;;;;;;;;-142.25;100.00;58004.16;4892533;29;19933;-66
2023/04/13 03:16:47;;;;;;;;;;;;;;;-142.25;100.00;58004.16;4912649;29;20398;-65
2023/04/13 03:19:13;;;;;;;;;;;;;;;-142.25;100.00;58004.16;4926783;29;20267;-66
2023/04/13 03:21:43;;;;;;;;;;;;;;;-142.25;100.00;58004.16;4926240;29;19927;-66
2023/04/13 03:24:12;;;;;;;;;;;;;;;-142.25;100.00;58004.16;4913172;29;19970;-66
2023/04/13 03:26:38;;;;;;;;;;;;;;;-142.25;100.00;58004.16;4926991;29;19995;-66
2023/04/13 03:29:08;;;;;;;;;;;;;;;-142.25;100.00;58004.16;4927337;28;19927;-66
2023/04/13 03:31:39;;;;;;;;;;;;;;;-142.25;100.00;58004.16;4926488;29;20018;-66
2023/04/13 03:34:06;;;;;;;;;;;;;;;-142.25;100.00;58004.16;4928797;28;19989;-66
2023/04/13 03:36:31;;;;;;;;;;;;;;;-142.25;100.00;58004.16;4913732;29;19927;-66
2023/04/13 03:38:57;;;;;;;;;;;;;;;-142.25;100.00;58004.16;4913300;29;19926;-66
2023/04/13 03:41:26;;;;;;;;;;;;;;;-142.25;100.00;58004.16;4929247;29;19927;-67
2023/04/13 03:43:51;;;;;;;;;;;;;;;-142.25;100.00;58004.16;4912199;29;20346;-66
2023/04/13 03:46:17;;;;;;;;;;;;;;;-142.25;100.00;58004.16;4920104;29;19982;-66
2023/04/13 03:48:42;;;;;;;;;;;;;;;-142.25;100.00;58004.16;4914753;29;20264;-66
2023/04/13 03:51:13;;;;;;;;;;;;;;;-142.25;100.00;58004.16;4912112;29;19999;-67
2023/04/13 03:53:46;;;;;;;;;;;;;;;-142.25;100.00;58004.16;4912487;29;19927;-66
2023/04/13 03:56:11;;;;;;;;;;;;;;;-142.25;100.00;58004.16;4910953;29;19958;-66
2023/04/13 03:58:37;;;;;;;;;;;;;;;-142.25;100.00;58004.16;4922281;29;19927;-66
2023/04/13 04:01:09;;;;;;;;;;;;;;;-142.25;100.00;58004.16;4920263;29;19927;-67
2023/04/13 04:03:45;;;;;;;;;;;;;;;-142.25;100.00;58004.16;4912125;29;19939;-67
2023/04/13 04:06:12;;;;;;;;;;;;;;;-142.25;100.00;58004.16;4912374;29;19927;-67
2023/04/13 04:08:42;;;;;;;;;;;;;;;-142.25;100.00;58004.16;4909824;29;19934;-67
2023/04/13 04:11:21;;;;;;;;;;;;;;;-142.25;100.00;58004.16;4910272;29;20426;-67
2023/04/13 04:13:46;;;;;;;;;;;;;;;-142.25;100.00;58004.16;4927449;29;19923;-67
2023/04/13 04:16:12;;;;;;;;;;;;;;;-142.25;100.00;58004.16;4920299;29;20247;-67
2023/04/13 04:18:43;;;;;;;;;;;;;;;-142.25;100.00;58004.16;4929230;29;19927;-66
2023/04/13 04:21:12;;;;;;;;;;;;;;;-142.25;100.00;58004.16;4912609;29;20449;-66
2023/04/13 04:23:38;;;;;;;;;;;;;;;-142.25;100.00;58004.16;4911630;29;19939;-68
2023/04/13 04:26:05;;;;;;;;;;;;;;;-142.25;100.00;58004.16;4912750;29;19974;-67
2023/04/13 04:28:50;;;;;;;;;;;;;;;-142.25;100.00;58004.16;4911629;29;19926;-66
2023/04/13 04:31:20;;;;;;;;;;;;;;;-142.25;100.00;58004.16;4920576;29;19959;-66
2023/04/13 04:33:51;;;;;;;;;;;;;;;-142.25;100.00;58004.16;4904086;29;20001;-66
2023/04/13 04:36:19;;;;;;;;;;;;;;;-142.25;100.00;58004.16;4910725;29;20408;-66
2023/04/13 04:38:56;;;;;;;;;;;;;;;-142.25;100.00;58004.16;4911702;29;19927;-66
2023/04/13 04:41:24;;;;;;;;;;;;;;;-142.25;100.00;58004.16;4912376;29;19922;-68
2023/04/13 04:43:55;;;;;;;;;;;;;;;-142.25;100.00;58004.16;4930203;29;20069;-67
2023/04/13 04:46:28;;;;;;;;;;;;;;;-142.25;100.00;58004.16;4915749;29;19927;-67
2023/04/13 04:48:59;;;;;;;;;;;;;;;-142.25;100.00;58004.16;4920567;29;19981;-69
2023/04/13 04:51:27;;;;;;;;;;;;;;;-142.25;100.00;58004.16;4916205;29;19934;-67
2023/04/13 04:53:53;;;;;;;;;;;;;;;-142.25;100.00;58004.16;4913493;29;19954;-69
2023/04/13 04:56:22;;;;;;;;;;;;;;;-142.25;100.00;58004.16;4931202;29;20355;-69
2023/04/13 04:58:50;;;;;;;;;;;;;;;-142.25;100.00;58004.16;4914618;29;19927;-70
2023/04/13 05:01:21;;;;;;;;;;;;;;;-142.25;100.00;58004.16;4915349;29;19934;-70
2023/04/13 05:03:50;;;;;;;;;;;;;;;-142.25;100.00;58004.16;4924156;29;19954;-75
2023/04/13 05:06:22;;;;;;;;;;;;;;;-142.25;100.00;58004.16;4916142;29;20490;-69
2023/04/13 05:08:47;;;;;;;;;;;;;;;-142.25;100.00;58004.16;4912610;29;20200;-67
2023/04/13 05:11:13;;;;;;;;;;;;;;;-142.25;100.00;58004.16;4913548;29;20289;-67
2023/04/13 05:13:39;;;;;;;;;;;;;;;-142.25;100.00;58004.16;4914176;29;19994;-70
2023/04/13 05:16:18;;;;;;;;;;;;;;;-142.25;100.00;58004.16;4923444;29;19922;-68
2023/04/13 05:18:44;;;;;;;;;;;;;;;-142.25;100.00;58004.16;4913299;29;20410;-67
2023/04/13 05:21:13;;;;;;;;;;;;;;;-142.25;100.00;58004.16;4913351;29;19931;-66
2023/04/13 05:23:39;;;;;;;;;;;;;;;-142.25;100.00;58004.16;4911635;29;20268;-68
2023/04/13 05:26:08;;;;;;;;;;;;;;;-142.25;100.00;58004.16;4909943;29;19950;-67
2023/04/13 05:28:34;;;;;;;;;;;;;;;-142.25;100.00;58004.16;4910701;29;20397;-67
2023/04/13 05:31:00;;;;;;;;;;;;;;;-142.25;100.00;58004.16;4921636;29;19927;-67
2023/04/13 05:33:26;;;;;;;;;;;;;;;-142.25;100.00;58004.16;4911310;29;19923;-67
2023/04/13 05:35:55;;;;;;;;;;;;;;;-142.25;100.00;58004.16;4929240;29;20696;-67
2023/04/13 05:38:21;;;;;;;;;;;;;;;-142.25;100.00;58004.16;4912201;29;20214;-68
2023/04/13 05:40:47;;;;;;;;;;;;;;;-142.25;100.00;58004.16;4911904;29;20397;-68
2023/04/13 05:43:13;;;;;;;;;;;;;;;-142.25;100.00;58004.16;4912776;29;19957;-67
2023/04/13 05:45:45;;;;;;;;;;;;;;;-142.25;100.00;58004.16;4930062;29;19926;-68
2023/04/13 05:48:13;;;;;;;;;;;;;;;-142.25;100.00;58004.16;4912555;29;20325;-68
2023/04/13 05:50:42;;;;;;;;;;;;;;;-142.25;100.00;58004.16;4912668;29;20350;-67
2023/04/13 05:53:09;;;;;;;;;;;;;;;-142.25;100.00;58004.16;4911352;29;19930;-67
2023/04/13 05:55:44;;;;;;;;;;;;;;;-142.25;100.00;58004.16;4913929;29;20061;-67
2023/04/13 05:58:11;;;;;;;;;;;;;;;-142.25;100.00;58004.16;4912843;29;20679;-66
2023/04/13 06:00:37;;;;;;;;;;;;;;;-142.25;100.00;58004.16;4913700;29;20221;-67
2023/04/13 06:03:07;;;;;;;;;;;;;;;-142.25;100.00;58004.16;4912886;29;20465;-67
2023/04/13 06:05:34;;;;;;;;;;;;;;;-142.25;100.00;58004.16;4914391;29;19934;-67
2023/04/13 06:07:59;;;;;;;;;;;;;;;-142.25;100.00;58004.16;4914820;29;20010;-67
2023/04/13 06:10:25;;;;;;;;;;;;;;;-142.25;100.00;58004.16;4915002;29;20366;-67
2023/04/13 06:12:52;;;;;;;;;;;;;;;-142.25;100.00;58004.16;4914012;29;19926;-68
2023/04/13 06:15:18;;;;;;;;;;;;;;;-142.25;100.00;58004.16;4913750;29;20315;-67
2023/04/13 06:17:43;;;;;;;;;;;;;;;-142.25;100.00;58004.16;4914295;29;19936;-67
2023/04/13 06:20:10;;;;;;;;;;;;;;;-142.25;100.00;58004.16;4912808;29;19923;-66
2023/04/13 06:22:35;;;;;;;;;;;;;;;-142.25;100.00;58004.16;4914480;29;19942;-67
2023/04/13 06:25:01;;;;;;;;;;;;;;;-142.25;100.00;58004.16;4916290;29;19930;-66
2023/04/13 06:27:32;;;;;;;;;;;;;;;-142.25;100.00;58004.16;4914345;29;19926;-67
2023/04/13 06:30:00;;;;;;;;;;;;;;;-142.25;100.00;58004.16;4920775;29;20379;-66
2023/04/13 06:32:27;;;;;;;;;;;;;;;-142.25;100.00;58004.16;4920178;29;19934;-66
2023/04/13 06:34:52;;;;;;;;;;;;;;;-142.25;100.00;58004.16;4912626;29;19927;-65
2023/04/13 06:37:18;;;;;;;;;;;;;;;-142.25;100.00;58004.16;4908270;29;19926;-65
2023/04/13 06:39:47;;;;;;;;;;;;;;;-142.25;100.00;58004.16;4925917;29;19927;-65
2023/04/13 06:42:14;;;;;;;;;;;;;;;-142.25;100.00;58004.16;4909222;29;19927;-65
2023/04/13 06:44:57;;;;;;;;;;;;;;;-142.25;100.00;58004.16;4909492;29;19987;-66
2023/04/13 06:47:23;;;;;;;;;;;;;;;-142.25;100.00;58004.16;4910668;29;19933;-66
2023/04/13 06:49:50;;;;;;;;;;;;;;;-142.25;100.00;58004.16;4913578;29;20002;-67
2023/04/13 06:52:16;;;;;;;;;;;;;;;-142.25;100.00;58004.16;4913124;29;20248;-68
2023/04/13 06:54:42;;;;;;;;;;;;;;;-142.25;100.00;58004.16;4912545;29;19923;-67
2023/04/13 06:57:19;;;;;;;;;;;;;;;-142.25;100.00;58004.16;4911406;29;19930;-67
2023/04/13 06:59:46;;;;;;;;;;;;;;;-142.25;100.00;58004.16;4914142;29;19922;-67
2023/04/13 07:02:11;;;;;;;;;;;;;;;-142.25;100.00;58004.16;4914098;29;19934;-67
2023/04/13 07:04:37;;;;;;;;;;;;;;;-142.25;100.00;58004.16;4911956;29;20407;-68
2023/04/13 07:07:03;;;;;;;;;;;;;;;-142.25;100.00;58004.16;4909992;29;19922;-67
2023/04/13 07:09:29;;;;;;;;;;;;;;;-142.25;100.00;58004.16;4908256;29;19954;-67
2023/04/13 07:11:55;;;;;;;;;;;;;;;-142.25;100.00;58004.16;4912979;29;19974;-67
2023/04/13 07:14:21;;;;;;;;;;;;;;;-142.25;100.00;58004.16;4910562;29;19930;-67
2023/04/13 07:16:47;;;;;;;;;;;;;;;-142.25;100.00;58004.16;4911649;29;19962;-67
2023/04/13 07:19:13;;;;;;;;;;;;;;;-142.25;100.00;58004.16;4910174;29;19934;-67
2023/04/13 07:21:40;;;;;;;;;;;;;;;-142.25;100.00;58004.16;4910551;29;20453;-67
2023/04/13 07:24:05;;;;;;;;;;;;;;;-142.25;100.00;58004.16;4930611;28;19938;-67
2023/04/13 07:26:33;;;;;;;;;;;;;;;-142.25;100.00;58004.16;4911994;29;19933;-67
2023/04/13 07:28:59;;;;;;;;;;;;;;;-142.25;100.00;58004.16;4925944;29;19942;-67
2023/04/13 07:31:28;;;;;;;;;;;;;;;-142.25;100.00;58004.16;4909835;29;20373;-67
2023/04/13 07:33:55;;;;;;;;;;;;;;;-142.25;100.00;58004.16;4911332;29;19927;-67
2023/04/13 07:36:27;;;;;;;;;;;;;;;-142.25;100.00;58004.16;4911699;29;20081;-68
2023/04/13 07:38:56;;;;;;;;;;;;;;;-142.25;100.00;58004.16;4909942;29;19926;-67
2023/04/13 07:41:23;;;;;;;;;;;;;;;-142.25;100.00;58004.16;4903743;29;19922;-68
2023/04/13 07:43:54;;;;;;;;;;;;;;;-142.25;100.00;58004.16;4911618;29;20001;-63
2023/04/13 07:46:25;;;;;;;;;;;;;;;-142.25;100.00;58004.16;4910932;29;19965;-68
2023/04/13 07:48:55;;;;;;;;;;;;;;;-142.25;100.00;58004.16;4910788;29;20275;-72
2023/04/13 07:51:25;;;;;;;;;;;;;;;-142.25;100.00;58004.16;4910558;29;19927;-65
2023/04/13 07:53:51;;;;;;;;;;;;;;;-142.25;100.00;58004.16;4909097;29;20382;-70
2023/04/13 07:56:17;;;;;;;;;;;;;;;-142.25;100.00;58004.16;4892019;29;19930;-72
2023/04/13 07:58:43;;;;;;;;;;;;;;;-142.25;100.00;58004.16;4914726;29;19923;-71
2023/04/13 08:01:09;;;;;;;;;;;;;;;-142.25;100.00;58004.16;4925672;28;19931;-70
2023/04/13 08:03:35;;;;;;;;;;;;;;;-142.25;100.00;58004.16;4919700;29;19971;-69
2023/04/13 08:06:05;;;;;;;;;;;;;;;-142.25;100.00;58004.16;4912218;29;20022;-70
2023/04/13 08:08:32;;;;;;;;;;;;;;;-142.25;100.00;58004.16;4914643;29;19922;-71
2023/04/13 08:10:58;;;;;;;;;;;;;;;-142.25;100.00;58004.16;4915075;29;19931;-70
2023/04/13 08:13:24;;;;;;;;;;;;;;;-142.25;100.00;58004.16;4926820;28;19926;-71
2023/04/13 08:15:50;;;;;;;;;;;;;;;-142.25;100.00;58004.16;4918604;29;20355;-70
2023/04/13 08:18:16;;;;;;;;;;;;;;;-142.25;100.00;58004.16;4917323;29;19933;-71
2023/04/13 08:20:42;;;;;;;;;;;;;;;-142.25;100.00;58004.16;4917336;29;19927;-70
2023/04/13 08:23:07;;;;;;;;;;;;;;;-142.25;100.00;58004.16;4931614;29;20381;-71
2023/04/13 08:25:38;;;;;;;;;;;;;;;-142.25;100.00;58004.16;4917599;29;20400;-71
2023/04/13 08:28:03;;;;;;;;;;;;;;;-142.25;100.00;58004.16;4931898;29;19922;-71
2023/04/13 08:30:31;;;;;;;;;;;;;;;-142.25;100.00;58004.16;4914002;29;20313;-70
2023/04/13 08:33:00;;;;;;;;;;;;;;;-142.25;100.00;58004.16;4930576;28;19929;-71
2023/04/13 08:35:26;;;;;;;;;;;;;;;-142.25;100.00;58004.16;4931814;29;19923;-71
2023/04/13 08:37:52;;;;;;;;;;;;;;;-142.25;100.00;58004.16;4907570;29;19926;-70
2023/04/13 08:40:19;;;;;;;;;;;;;;;-142.25;100.00;58004.16;4913262;29;20378;-71
2023/04/13 08:42:45;;;;;;;;;;;;;;;-142.25;100.00;58004.16;4918442;29;20393;-70
2023/04/13 08:45:12;;;;;;;;;;;;;;;-142.25;100.00;58004.16;4915640;29;19929;-70
2023/04/13 08:47:42;;;;;;;;;;;;;;;-142.25;100.00;58004.16;4923007;29;19923;-71
2023/04/13 08:50:08;;;;;;;;;;;;;;;-142.25;100.00;58004.16;4928703;29;20002;-71
2023/04/13 08:52:38;;;;;;;;;;;;;;;-142.25;100.00;58004.16;4913416;29;19933;-71
2023/04/13 08:55:04;;;;;;;;;;;;;;;-142.25;100.00;58004.16;4915291;29;19930;-71
2023/04/13 08:57:33;;;;;;;;;;;;;;;-142.25;100.00;58004.16;4915322;29;19927;-71
2023/04/13 08:59:59;;;;;;;;;;;;;;;-142.25;100.00;58004.16;4915985;29;19923;-70
2023/04/13 09:02:31;;;;;;;;;;;;;;;-142.25;100.00;58004.16;4917709;29;19933;-71
2023/04/13 09:05:04;;;;;;;;;;;;;;;-142.25;100.00;58004.16;4913758;29;20392;-70
2023/04/13 09:07:31;;;;;;;;;;;;;;;-142.25;100.00;58004.16;4913978;29;19930;-70
2023/04/13 09:10:04;;;;;;;;;;;;;;;-142.25;100.00;58004.16;4916741;29;19927;-70
2023/04/13 09:12:31;;;;;;;;;;;;;;;-142.25;100.00;58004.16;4916999;29;19922;-71
2023/04/13 09:14:57;;;;;;;;;;;;;;;-142.25;100.00;58004.16;4917108;29;19966;-70
2023/04/13 09:17:29;;;;;;;;;;;;;;;-142.25;100.00;58004.16;4930445;29;19973;-70
2023/04/13 09:19:56;;;;;;;;;;;;;;;-142.25;100.00;58004.16;4916484;29;19922;-71
2023/04/13 09:22:24;;;;;;;;;;;;;;;-142.25;100.00;58004.16;4915855;29;19953;-70
2023/04/13 09:24:50;;;;;;;;;;;;;;;-142.25;100.00;58004.16;4913855;29;19922;-70
2023/04/13 09:27:19;;;;;;;;;;;;;;;-142.25;100.00;58004.16;4916249;29;19922;-70
2023/04/13 09:29:49;;;;;;;;;;;;;;;-142.25;100.00;58004.16;4917215;29;19929;-69
2023/04/13 09:32:19;;;;;;;;;;;;;;;-142.25;100.00;58004.16;4917089;29;19994;-69
2023/04/13 09:34:56;;;;;;;;;;;;;;;-142.25;100.00;58004.16;4915225;29;19922;-60
2023/04/13 09:37:21;;;;;;;;;;;;;;;-142.25;100.00;58004.16;4914222;29;19923;-64
2023/04/13 09:39:47;;;;;;;;;;;;;;;-142.25;100.00;58004.16;4917644;29;19923;-62
2023/04/13 09:42:16;;;;;;;;;;;;;;;-142.25;100.00;58004.16;4915357;29;19934;-63
2023/04/13 09:44:42;;;;;;;;;;;;;;;-142.25;100.00;58004.16;4916747;29;19926;-63
2023/04/13 09:47:08;;;;;;;;;;;;;;;-142.25;100.00;58004.16;4915734;29;20761;-63
2023/04/13 09:49:37;;;;;;;;;;;;;;;-142.25;100.00;58004.16;4915321;29;19926;-62
2023/04/13 09:52:04;;;;;;;;;;;;;;;-142.25;100.00;58004.16;4915535;29;20457;-62
2023/04/13 09:54:29;;;;;;;;;;;;;;;-142.25;100.00;58004.16;4924651;29;19957;-62
2023/04/13 09:56:56;;;;;;;;;;;;;;;-142.25;100.00;58004.16;4916063;29;20556;-61
2023/04/13 09:59:24;;;;;;;;;;;;;;;-142.25;100.00;58004.16;4914061;29;20031;-62
2023/04/13 10:01:50;;;;;;;;;;;;;;;-142.25;100.00;58004.16;4917136;29;19919;-62
2023/04/13 10:04:16;;;;;;;;;;;;;;;-142.25;100.00;58004.16;4914749;29;20822;-62
2023/04/13 10:06:42;;;;;;;;;;;;;;;-142.25;100.00;58004.16;4916018;29;20013;-62
2023/04/13 10:09:08;;;;;;;;;;;;;;;-142.25;100.00;58004.16;4914889;29;20009;-62
2023/04/13 10:11:38;;;;;;;;;;;;;;;-142.25;100.00;58004.16;4921258;29;19930;-62
2023/04/13 10:14:08;;;;;;;;;;;;;;;-142.25;100.00;58004.16;4916153;29;20033;-61
2023/04/13 10:16:42;;;;;;;;;;;;;;;-142.25;100.00;58004.16;4912803;29;20554;-61
2023/04/13 10:19:07;;;;;;;;;;;;;;;-142.25;100.00;58004.16;4911776;29;20017;-61
2023/04/13 10:21:38;;;;;;;;;;;;;;;-142.25;100.00;58004.16;4912621;29;19958;-62
2023/04/13 10:24:04;;;;;;;;;;;;;;;-142.25;100.00;58004.16;4913159;29;20069;-61
2023/04/13 10:26:31;;;;;;;;;;;;;;;-142.25;100.00;58004.16;4916200;29;19937;-62
2023/04/13 10:28:58;;;;;;;;;;;;;;;-142.25;100.00;58004.16;4915389;29;19927;-69
2023/04/13 10:31:35;;;;;;;;;;;;;;;-142.25;100.00;58004.16;4914691;29;19979;-61
2023/04/13 10:34:01;;;;;;;;;;;;;;;-142.25;100.00;58004.16;4915345;29;20381;-65
2023/04/13 10:36:36;;;;;;;;;;;;;;;-142.25;100.00;58004.16;4912341;29;19938;-63
2023/04/13 10:39:02;;;;;;;;;;;;;;;-142.25;100.00;58004.16;4914885;29;19923;-63
2023/04/13 10:41:27;;;;;;;;;;;;;;;-142.25;100.00;58004.16;4914137;29;19950;-62
2023/04/13 10:44:03;;;;;;;;;;;;;;;-142.25;100.00;58004.16;4914589;29;20294;-61
2023/04/13 10:46:29;;;;;;;;;;;;;;;-142.25;100.00;58004.16;4914860;29;19927;-63
2023/04/13 10:48:56;;;;;;;;;;;;;;;-142.25;100.00;58004.16;4929532;29;20400;-63
2023/04/13 10:51:22;;;;;;;;;;;;;;;-142.25;100.00;58004.16;4914955;29;19927;-61
2023/04/13 10:53:48;;;;;;;;;;;;;;;-142.25;100.00;58004.16;4914964;29;20447;-61
2023/04/13 10:56:17;;;;;;;;;;;;;;;-142.25;100.00;58004.16;4914668;29;19926;-62
2023/04/13 10:58:50;;;;;;;;;;;;;;;-142.25;100.00;58004.16;4914711;29;19966;-63
2023/04/13 11:01:16;;;;;;;;;;;;;;;-142.25;100.00;58004.16;4914075;29;19927;-62
2023/04/13 11:03:41;;;;;;;;;;;;;;;-142.25;100.00;58004.16;4913414;29;20031;-63
2023/04/13 11:06:07;;;;;;;;;;;;;;;-142.25;100.00;58004.16;4913969;29;20519;-60
2023/04/13 11:08:33;;;;;;;;;;;;;;;-142.25;100.00;58004.16;4919634;29;20461;-61
2023/04/13 11:10:59;;;;;;;;;;;;;;;-142.25;100.00;58004.16;4913999;29;19931;-63
2023/04/13 11:13:25;;;;;;;;;;;;;;;-142.25;100.00;58004.16;4914915;29;20374;-61
2023/04/13 11:15:58;;;;;;;;;;;;;;;-142.25;100.00;58004.16;4913850;29;19949;-61
2023/04/13 11:18:25;;;;;;;;;;;;;;;-142.25;100.00;58004.16;4914488;29;19949;-72
2023/04/13 11:20:50;;;;;;;;;;;;;;;-142.25;100.00;58004.16;4913768;29;19934;-63
2023/04/13 11:23:17;;;;;;;;;;;;;;;-142.25;100.00;58004.16;4912903;29;19926;-63
2023/04/13 11:25:51;;;;;;;;;;;;;;;-142.25;100.00;58004.16;4897065;29;19949;-69
2023/04/13 11:28:17;;;;;;;;;;;;;;;-142.25;100.00;58004.16;4913733;29;19927;-69
2023/04/13 11:30:50;;;;;;;;;;;;;;;-142.25;100.00;58004.16;4914788;29;20343;-68
2023/04/13 11:33:23;;;;;;;;;;;;;;;-142.25;100.00;58004.16;4914483;29;19930;-68
2023/04/13 11:35:50;;;;;;;;;;;;;;;-142.25;100.00;58004.16;4914638;29;20382;-66
2023/04/13 11:38:21;;;;;;;;;;;;;;;-142.25;100.00;58004.16;4918684;29;19950;-65
2023/04/13 11:40:49;;;;;;;;;;;;;;;-142.25;100.00;58004.16;4914285;29;19930;-64
2023/04/13 11:43:16;;;;;;;;;;;;;;;-142.25;100.00;58004.16;4911809;29;20402;-64
2023/04/13 11:45:42;;;;;;;;;;;;;;;-142.25;100.00;58004.16;4913521;29;19976;-64
2023/04/13 11:48:08;;;;;;;;;;;;;;;-142.25;100.00;58004.16;4912500;29;19927;-62
2023/04/13 11:50:37;;;;;;;;;;;;;;;-142.25;100.00;58004.16;4913992;29;19934;-62
2023/04/13 11:53:03;;;;;;;;;;;;;;;-142.25;100.00;58004.16;4913936;29;20017;-66
2023/04/13 11:55:30;;;;;;;;;;;;;;;-142.25;100.00;58004.16;4915130;29;19931;-65
2023/04/13 11:57:56;;;;;;;;;;;;;;;-142.25;100.00;58004.16;4914122;29;19923;-69
2023/04/13 12:00:25;;;;;;;;;;;;;;;-142.25;100.00;58004.16;4915898;29;19930;-67
2023/04/13 12:02:51;;;;;;;;;;;;;;;-142.25;100.00;58004.16;4916423;29;19977;-64
2023/04/13 12:05:22;;;;;;;;;;;;;;;-142.25;100.00;58004.16;4914884;29;20309;-65
2023/04/13 12:07:49;;;;;;;;;;;;;;;-142.25;100.00;58004.16;4911879;29;19926;-66
2023/04/13 12:10:30;;;;;;;;;;;;;;;-142.25;100.00;58004.16;4914092;29;20318;-65
2023/04/13 12:13:00;;;;;;;;;;;;;;;-142.25;100.00;58004.16;4911443;29;20454;-66
2023/04/13 12:15:27;;;;;;;;;;;;;;;-142.25;100.00;58004.16;4914918;29;19923;-65
2023/04/13 12:17:54;;;;;;;;;;;;;;;-142.25;100.00;58004.16;4912217;29;19930;-66
2023/04/13 12:20:19;;;;;;;;;;;;;;;-142.25;100.00;58004.16;4910609;29;20434;-68
2023/04/13 12:22:45;;;;;;;;;;;;;;;-142.25;100.00;58004.16;4910517;29;19953;-68